sensor_id;sensor_type;location;lat;lon;timestamp;P1;durP1;ratioP1;P2;durP2;ratioP2
41253;SDS011;26987;59.928;30.306;2023-08-06T00:01:12;11.00;;;5.80;;
41253;SDS011;26987;59.928;30.306;2023-08-06T00:03:40;13.20;;;6.03;;
41253;SDS011;26987;59.928;30.306;2023-08-06T00:06:08;9.02;;;5.97;;
41253;SDS011;26987;59.928;30.306;2023-08-06T00:08:36;14.85;;;6.43;;
41253;SDS011;26987;59.928;30.306;2023-08-06T00:11:03;10.07;;;5.35;;
41253;SDS011;26987;59.928;30.306;2023-08-06T00:13:31;11.23;;;5.47;;
41253;SDS011;26987;59.928;30.306;2023-08-06T00:16:09;11.02;;;5.35;;
41253;SDS011;26987;59.928;30.306;2023-08-06T00:18:37;14.23;;;5.90;;
41253;SDS011;26987;59.928;30.306;2023-08-06T00:21:05;12.23;;;5.80;;
41253;SDS011;26987;59.928;30.306;2023-08-06T00:23:33;12.57;;;5.97;;
41253;SDS011;26987;59.928;30.306;2023-08-06T00:26:01;12.48;;;6.10;;
41253;SDS011;26987;59.928;30.306;2023-08-06T00:28:29;18.88;;;6.72;;
41253;SDS011;26987;59.928;30.306;2023-08-06T00:30:57;13.90;;;5.97;;
41253;SDS011;26987;59.928;30.306;2023-08-06T00:33:26;10.85;;;6.13;;
41253;SDS011;26987;59.928;30.306;2023-08-06T00:35:53;7.80;;;5.65;;
41253;SDS011;26987;59.928;30.306;2023-08-06T00:38:21;9.65;;;5.85;;
41253;SDS011;26987;59.928;30.306;2023-08-06T00:40:49;11.15;;;5.80;;
41253;SDS011;26987;59.928;30.306;2023-08-06T00:43:17;10.68;;;5.82;;
41253;SDS011;26987;59.928;30.306;2023-08-06T00:45:45;13.10;;;5.95;;
41253;SDS011;26987;59.928;30.306;2023-08-06T00:48:13;10.77;;;6.82;;
41253;SDS011;26987;59.928;30.306;2023-08-06T00:50:43;13.50;;;6.03;;
41253;SDS011;26987;59.928;30.306;2023-08-06T00:53:11;14.75;;;6.13;;
41253;SDS011;26987;59.928;30.306;2023-08-06T00:55:41;11.80;;;6.50;;
41253;SDS011;26987;59.928;30.306;2023-08-06T00:58:12;11.30;;;5.75;;
41253;SDS011;26987;59.928;30.306;2023-08-06T01:00:40;10.25;;;5.82;;
41253;SDS011;26987;59.928;30.306;2023-08-06T01:03:08;9.50;;;5.50;;
41253;SDS011;26987;59.928;30.306;2023-08-06T01:05:36;13.73;;;6.40;;
41253;SDS011;26987;59.928;30.306;2023-08-06T01:08:09;9.88;;;6.53;;
41253;SDS011;26987;59.928;30.306;2023-08-06T01:10:49;11.48;;;5.82;;
41253;SDS011;26987;59.928;30.306;2023-08-06T01:13:27;9.77;;;5.75;;
41253;SDS011;26987;59.928;30.306;2023-08-06T01:16:00;13.85;;;6.95;;
41253;SDS011;26987;59.928;30.306;2023-08-06T01:18:31;15.38;;;6.20;;
41253;SDS011;26987;59.928;30.306;2023-08-06T01:21:00;9.45;;;5.90;;
41253;SDS011;26987;59.928;30.306;2023-08-06T01:23:28;10.63;;;5.45;;
41253;SDS011;26987;59.928;30.306;2023-08-06T01:25:58;11.88;;;6.05;;
41253;SDS011;26987;59.928;30.306;2023-08-06T01:28:33;9.70;;;6.32;;
41253;SDS011;26987;59.928;30.306;2023-08-06T01:31:08;14.35;;;6.47;;
41253;SDS011;26987;59.928;30.306;2023-08-06T01:36:12;15.07;;;6.88;;
41253;SDS011;26987;59.928;30.306;2023-08-06T01:38:42;11.90;;;6.53;;
41253;SDS011;26987;59.928;30.306;2023-08-06T01:41:10;10.82;;;6.10;;
41253;SDS011;26987;59.928;30.306;2023-08-06T01:43:38;12.10;;;6.55;;
41253;SDS011;26987;59.928;30.306;2023-08-06T01:46:06;15.43;;;6.55;;
41253;SDS011;26987;59.928;30.306;2023-08-06T01:48:34;12.02;;;6.03;;
41253;SDS011;26987;59.928;30.306;2023-08-06T01:51:03;12.93;;;6.88;;
41253;SDS011;26987;59.928;30.306;2023-08-06T01:53:33;12.05;;;6.40;;
41253;SDS011;26987;59.928;30.306;2023-08-06T01:56:01;16.52;;;7.20;;
41253;SDS011;26987;59.928;30.306;2023-08-06T01:58:29;14.35;;;8.07;;
41253;SDS011;26987;59.928;30.306;2023-08-06T02:00:57;16.60;;;7.38;;
41253;SDS011;26987;59.928;30.306;2023-08-06T02:03:25;14.38;;;6.82;;
41253;SDS011;26987;59.928;30.306;2023-08-06T02:05:53;11.32;;;7.10;;
41253;SDS011;26987;59.928;30.306;2023-08-06T02:08:21;12.77;;;7.05;;
41253;SDS011;26987;59.928;30.306;2023-08-06T02:10:50;13.98;;;6.72;;
41253;SDS011;26987;59.928;30.306;2023-08-06T02:13:18;17.27;;;6.90;;
41253;SDS011;26987;59.928;30.306;2023-08-06T02:15:45;13.18;;;6.72;;
41253;SDS011;26987;59.928;30.306;2023-08-06T02:18:14;15.00;;;6.80;;
41253;SDS011;26987;59.928;30.306;2023-08-06T02:20:42;13.98;;;6.18;;
41253;SDS011;26987;59.928;30.306;2023-08-06T02:23:10;19.85;;;7.30;;
41253;SDS011;26987;59.928;30.306;2023-08-06T02:25:38;15.32;;;6.60;;
41253;SDS011;26987;59.928;30.306;2023-08-06T02:28:07;17.60;;;6.80;;
41253;SDS011;26987;59.928;30.306;2023-08-06T02:30:35;14.20;;;7.45;;
41253;SDS011;26987;59.928;30.306;2023-08-06T02:33:03;17.20;;;7.88;;
41253;SDS011;26987;59.928;30.306;2023-08-06T02:35:31;25.08;;;8.07;;
41253;SDS011;26987;59.928;30.306;2023-08-06T02:37:58;14.98;;;7.50;;
41253;SDS011;26987;59.928;30.306;2023-08-06T02:40:26;16.50;;;7.80;;
41253;SDS011;26987;59.928;30.306;2023-08-06T02:42:55;18.25;;;7.53;;
41253;SDS011;26987;59.928;30.306;2023-08-06T02:45:24;16.05;;;7.63;;
41253;SDS011;26987;59.928;30.306;2023-08-06T02:47:52;15.48;;;7.70;;
41253;SDS011;26987;59.928;30.306;2023-08-06T02:50:20;13.20;;;7.07;;
41253;SDS011;26987;59.928;30.306;2023-08-06T02:52:48;16.90;;;6.38;;
41253;SDS011;26987;59.928;30.306;2023-08-06T02:55:16;16.63;;;6.47;;
41253;SDS011;26987;59.928;30.306;2023-08-06T02:57:48;13.50;;;6.60;;
41253;SDS011;26987;59.928;30.306;2023-08-06T03:00:16;14.05;;;6.28;;
41253;SDS011;26987;59.928;30.306;2023-08-06T03:02:46;16.20;;;7.43;;
41253;SDS011;26987;59.928;30.306;2023-08-06T03:05:36;16.10;;;6.68;;
41253;SDS011;26987;59.928;30.306;2023-08-06T03:08:05;17.55;;;6.43;;
41253;SDS011;26987;59.928;30.306;2023-08-06T03:10:35;16.90;;;6.50;;
41253;SDS011;26987;59.928;30.306;2023-08-06T03:13:04;10.30;;;6.63;;
41253;SDS011;26987;59.928;30.306;2023-08-06T03:15:32;13.35;;;7.00;;
41253;SDS011;26987;59.928;30.306;2023-08-06T03:18:03;17.50;;;7.38;;
41253;SDS011;26987;59.928;30.306;2023-08-06T03:20:32;15.75;;;6.53;;
41253;SDS011;26987;59.928;30.306;2023-08-06T03:23:00;11.20;;;6.90;;
41253;SDS011;26987;59.928;30.306;2023-08-06T03:25:30;17.77;;;7.13;;
41253;SDS011;26987;59.928;30.306;2023-08-06T03:27:58;12.15;;;6.47;;
41253;SDS011;26987;59.928;30.306;2023-08-06T03:30:26;12.38;;;6.97;;
41253;SDS011;26987;59.928;30.306;2023-08-06T03:32:55;12.70;;;6.25;;
41253;SDS011;26987;59.928;30.306;2023-08-06T03:35:24;14.00;;;6.72;;
41253;SDS011;26987;59.928;30.306;2023-08-06T03:37:52;15.60;;;7.35;;
41253;SDS011;26987;59.928;30.306;2023-08-06T03:40:20;11.05;;;6.30;;
41253;SDS011;26987;59.928;30.306;2023-08-06T03:42:48;9.48;;;6.45;;
41253;SDS011;26987;59.928;30.306;2023-08-06T03:45:16;13.35;;;5.75;;
41253;SDS011;26987;59.928;30.306;2023-08-06T03:47:44;12.52;;;5.90;;
41253;SDS011;26987;59.928;30.306;2023-08-06T03:50:13;9.00;;;5.88;;
41253;SDS011;26987;59.928;30.306;2023-08-06T03:52:42;14.95;;;6.10;;
41253;SDS011;26987;59.928;30.306;2023-08-06T03:55:11;13.75;;;5.88;;
41253;SDS011;26987;59.928;30.306;2023-08-06T03:57:39;10.52;;;5.60;;
41253;SDS011;26987;59.928;30.306;2023-08-06T04:00:07;11.73;;;5.60;;
41253;SDS011;26987;59.928;30.306;2023-08-06T04:02:41;11.90;;;5.45;;
41253;SDS011;26987;59.928;30.306;2023-08-06T04:05:12;10.85;;;5.75;;
41253;SDS011;26987;59.928;30.306;2023-08-06T04:07:39;16.85;;;5.53;;
41253;SDS011;26987;59.928;30.306;2023-08-06T04:10:09;11.68;;;5.32;;
41253;SDS011;26987;59.928;30.306;2023-08-06T04:12:37;18.30;;;5.50;;
41253;SDS011;26987;59.928;30.306;2023-08-06T04:15:05;11.20;;;5.75;;
41253;SDS011;26987;59.928;30.306;2023-08-06T04:17:34;10.70;;;5.78;;
41253;SDS011;26987;59.928;30.306;2023-08-06T04:20:02;12.00;;;5.85;;
41253;SDS011;26987;59.928;30.306;2023-08-06T04:22:31;13.40;;;6.00;;
41253;SDS011;26987;59.928;30.306;2023-08-06T04:25:00;12.90;;;6.13;;
41253;SDS011;26987;59.928;30.306;2023-08-06T04:27:28;11.32;;;4.85;;
41253;SDS011;26987;59.928;30.306;2023-08-06T04:29:56;10.70;;;4.10;;
41253;SDS011;26987;59.928;30.306;2023-08-06T04:32:25;9.20;;;3.75;;
41253;SDS011;26987;59.928;30.306;2023-08-06T04:34:55;8.80;;;5.13;;
41253;SDS011;26987;59.928;30.306;2023-08-06T04:37:24;20.45;;;5.07;;
41253;SDS011;26987;59.928;30.306;2023-08-06T04:39:52;4.82;;;2.05;;
41253;SDS011;26987;59.928;30.306;2023-08-06T04:42:21;3.72;;;2.28;;
41253;SDS011;26987;59.928;30.306;2023-08-06T04:44:49;6.15;;;1.90;;
41253;SDS011;26987;59.928;30.306;2023-08-06T04:47:17;3.45;;;1.60;;
41253;SDS011;26987;59.928;30.306;2023-08-06T04:49:45;3.63;;;1.58;;
41253;SDS011;26987;59.928;30.306;2023-08-06T04:52:13;2.75;;;1.60;;
41253;SDS011;26987;59.928;30.306;2023-08-06T04:54:40;4.50;;;1.50;;
41253;SDS011;26987;59.928;30.306;2023-08-06T04:57:08;5.50;;;1.15;;
41253;SDS011;26987;59.928;30.306;2023-08-06T04:59:38;1.17;;;0.93;;
41253;SDS011;26987;59.928;30.306;2023-08-06T05:02:06;1.80;;;1.00;;
41253;SDS011;26987;59.928;30.306;2023-08-06T05:04:34;5.30;;;1.38;;
41253;SDS011;26987;59.928;30.306;2023-08-06T05:07:02;3.15;;;1.40;;
41253;SDS011;26987;59.928;30.306;2023-08-06T05:09:30;1.48;;;1.13;;
41253;SDS011;26987;59.928;30.306;2023-08-06T05:12:00;2.50;;;1.08;;
41253;SDS011;26987;59.928;30.306;2023-08-06T05:14:28;3.38;;;1.38;;
41253;SDS011;26987;59.928;30.306;2023-08-06T05:16:57;4.07;;;1.33;;
41253;SDS011;26987;59.928;30.306;2023-08-06T05:19:25;1.40;;;0.90;;
41253;SDS011;26987;59.928;30.306;2023-08-06T05:21:52;2.40;;;1.40;;
41253;SDS011;26987;59.928;30.306;2023-08-06T05:24:20;2.38;;;1.20;;
41253;SDS011;26987;59.928;30.306;2023-08-06T05:26:48;2.58;;;1.10;;
41253;SDS011;26987;59.928;30.306;2023-08-06T05:29:16;2.35;;;1.42;;
41253;SDS011;26987;59.928;30.306;2023-08-06T05:31:44;2.60;;;1.33;;
41253;SDS011;26987;59.928;30.306;2023-08-06T05:34:13;3.25;;;1.08;;
41253;SDS011;26987;59.928;30.306;2023-08-06T05:36:41;1.77;;;1.00;;
41253;SDS011;26987;59.928;30.306;2023-08-06T05:39:09;1.90;;;1.40;;
41253;SDS011;26987;59.928;30.306;2023-08-06T05:41:37;2.58;;;1.52;;
41253;SDS011;26987;59.928;30.306;2023-08-06T05:44:04;2.75;;;1.40;;
41253;SDS011;26987;59.928;30.306;2023-08-06T05:46:32;2.90;;;1.60;;
41253;SDS011;26987;59.928;30.306;2023-08-06T05:49:00;2.50;;;1.42;;
41253;SDS011;26987;59.928;30.306;2023-08-06T05:51:29;2.58;;;1.33;;
41253;SDS011;26987;59.928;30.306;2023-08-06T05:53:57;2.60;;;1.13;;
41253;SDS011;26987;59.928;30.306;2023-08-06T05:56:25;2.30;;;1.50;;
41253;SDS011;26987;59.928;30.306;2023-08-06T05:58:53;3.03;;;1.52;;
41253;SDS011;26987;59.928;30.306;2023-08-06T06:01:20;2.58;;;1.40;;
41253;SDS011;26987;59.928;30.306;2023-08-06T06:03:49;1.90;;;1.38;;
41253;SDS011;26987;59.928;30.306;2023-08-06T06:06:16;2.47;;;1.13;;
41253;SDS011;26987;59.928;30.306;2023-08-06T06:08:45;7.70;;;1.80;;
41253;SDS011;26987;59.928;30.306;2023-08-06T06:11:13;4.22;;;1.20;;
41253;SDS011;26987;59.928;30.306;2023-08-06T06:13:41;2.05;;;1.35;;
41253;SDS011;26987;59.928;30.306;2023-08-06T06:16:09;3.67;;;1.30;;
41253;SDS011;26987;59.928;30.306;2023-08-06T06:18:36;3.10;;;1.33;;
41253;SDS011;26987;59.928;30.306;2023-08-06T06:21:04;2.08;;;1.25;;
41253;SDS011;26987;59.928;30.306;2023-08-06T06:23:32;3.67;;;1.27;;
41253;SDS011;26987;59.928;30.306;2023-08-06T06:26:01;5.05;;;1.52;;
41253;SDS011;26987;59.928;30.306;2023-08-06T06:28:29;5.40;;;1.65;;
41253;SDS011;26987;59.928;30.306;2023-08-06T06:30:59;4.88;;;1.77;;
41253;SDS011;26987;59.928;30.306;2023-08-06T06:33:28;3.88;;;1.48;;
41253;SDS011;26987;59.928;30.306;2023-08-06T06:35:55;6.05;;;1.58;;
41253;SDS011;26987;59.928;30.306;2023-08-06T06:38:23;6.57;;;1.40;;
41253;SDS011;26987;59.928;30.306;2023-08-06T06:40:54;5.85;;;1.48;;
41253;SDS011;26987;59.928;30.306;2023-08-06T06:43:24;9.18;;;1.73;;
41253;SDS011;26987;59.928;30.306;2023-08-06T06:45:55;7.60;;;1.42;;
41253;SDS011;26987;59.928;30.306;2023-08-06T06:48:25;2.80;;;1.50;;
41253;SDS011;26987;59.928;30.306;2023-08-06T06:50:54;4.18;;;1.15;;
41253;SDS011;26987;59.928;30.306;2023-08-06T06:53:22;5.35;;;1.02;;
41253;SDS011;26987;59.928;30.306;2023-08-06T06:55:53;3.00;;;1.10;;
41253;SDS011;26987;59.928;30.306;2023-08-06T06:58:21;3.38;;;1.20;;
41253;SDS011;26987;59.928;30.306;2023-08-06T07:00:50;2.33;;;1.08;;
41253;SDS011;26987;59.928;30.306;2023-08-06T07:03:19;4.45;;;0.98;;
41253;SDS011;26987;59.928;30.306;2023-08-06T07:05:47;2.05;;;1.00;;
41253;SDS011;26987;59.928;30.306;2023-08-06T07:08:15;7.45;;;1.45;;
41253;SDS011;26987;59.928;30.306;2023-08-06T07:10:43;1.98;;;0.80;;
41253;SDS011;26987;59.928;30.306;2023-08-06T07:13:11;7.03;;;1.17;;
41253;SDS011;26987;59.928;30.306;2023-08-06T07:15:39;3.95;;;1.30;;
41253;SDS011;26987;59.928;30.306;2023-08-06T07:18:08;1.83;;;1.20;;
41253;SDS011;26987;59.928;30.306;2023-08-06T07:20:36;7.32;;;1.55;;
41253;SDS011;26987;59.928;30.306;2023-08-06T07:23:04;2.95;;;1.27;;
41253;SDS011;26987;59.928;30.306;2023-08-06T07:25:31;3.15;;;1.40;;
41253;SDS011;26987;59.928;30.306;2023-08-06T07:27:59;6.72;;;1.23;;
41253;SDS011;26987;59.928;30.306;2023-08-06T07:30:28;6.13;;;1.23;;
41253;SDS011;26987;59.928;30.306;2023-08-06T07:32:56;1.63;;;0.98;;
41253;SDS011;26987;59.928;30.306;2023-08-06T07:35:28;2.50;;;0.80;;
41253;SDS011;26987;59.928;30.306;2023-08-06T07:37:56;2.10;;;1.13;;
41253;SDS011;26987;59.928;30.306;2023-08-06T07:40:24;3.65;;;1.10;;
41253;SDS011;26987;59.928;30.306;2023-08-06T07:42:52;2.85;;;1.10;;
41253;SDS011;26987;59.928;30.306;2023-08-06T07:45:19;2.28;;;1.08;;
41253;SDS011;26987;59.928;30.306;2023-08-06T07:47:47;7.50;;;1.20;;
41253;SDS011;26987;59.928;30.306;2023-08-06T07:50:15;2.22;;;1.10;;
41253;SDS011;26987;59.928;30.306;2023-08-06T07:52:45;1.60;;;0.93;;
41253;SDS011;26987;59.928;30.306;2023-08-06T07:55:13;3.42;;;0.88;;
41253;SDS011;26987;59.928;30.306;2023-08-06T07:57:41;4.38;;;1.17;;
41253;SDS011;26987;59.928;30.306;2023-08-06T08:00:09;2.30;;;1.52;;
41253;SDS011;26987;59.928;30.306;2023-08-06T08:02:41;3.05;;;1.30;;
41253;SDS011;26987;59.928;30.306;2023-08-06T08:05:09;4.35;;;1.40;;
41253;SDS011;26987;59.928;30.306;2023-08-06T08:07:37;3.17;;;1.10;;
41253;SDS011;26987;59.928;30.306;2023-08-06T08:10:07;2.50;;;1.17;;
41253;SDS011;26987;59.928;30.306;2023-08-06T08:12:35;3.28;;;1.13;;
41253;SDS011;26987;59.928;30.306;2023-08-06T08:15:03;5.25;;;2.25;;
41253;SDS011;26987;59.928;30.306;2023-08-06T08:17:32;3.15;;;1.65;;
41253;SDS011;26987;59.928;30.306;2023-08-06T08:20:00;4.10;;;1.95;;
41253;SDS011;26987;59.928;30.306;2023-08-06T08:22:28;3.60;;;1.48;;
41253;SDS011;26987;59.928;30.306;2023-08-06T08:24:56;2.95;;;1.20;;
41253;SDS011;26987;59.928;30.306;2023-08-06T08:27:25;4.72;;;1.60;;
41253;SDS011;26987;59.928;30.306;2023-08-06T08:29:53;3.95;;;1.30;;
41253;SDS011;26987;59.928;30.306;2023-08-06T08:32:21;3.00;;;1.58;;
41253;SDS011;26987;59.928;30.306;2023-08-06T08:34:49;2.00;;;1.27;;
41253;SDS011;26987;59.928;30.306;2023-08-06T08:37:17;2.50;;;1.35;;
41253;SDS011;26987;59.928;30.306;2023-08-06T08:39:45;3.97;;;1.60;;
41253;SDS011;26987;59.928;30.306;2023-08-06T08:42:12;1.88;;;1.20;;
41253;SDS011;26987;59.928;30.306;2023-08-06T08:44:42;2.85;;;1.45;;
41253;SDS011;26987;59.928;30.306;2023-08-06T08:47:10;2.25;;;1.13;;
41253;SDS011;26987;59.928;30.306;2023-08-06T08:49:38;2.55;;;1.38;;
41253;SDS011;26987;59.928;30.306;2023-08-06T08:52:08;4.38;;;1.70;;
41253;SDS011;26987;59.928;30.306;2023-08-06T08:54:38;3.10;;;1.40;;
41253;SDS011;26987;59.928;30.306;2023-08-06T08:57:07;2.83;;;1.35;;
41253;SDS011;26987;59.928;30.306;2023-08-06T08:59:35;2.63;;;1.48;;
41253;SDS011;26987;59.928;30.306;2023-08-06T09:02:05;4.47;;;1.40;;
41253;SDS011;26987;59.928;30.306;2023-08-06T09:04:35;2.67;;;1.60;;
41253;SDS011;26987;59.928;30.306;2023-08-06T09:07:03;2.72;;;1.55;;
41253;SDS011;26987;59.928;30.306;2023-08-06T09:09:33;5.60;;;1.90;;
41253;SDS011;26987;59.928;30.306;2023-08-06T09:12:05;3.17;;;1.58;;
41253;SDS011;26987;59.928;30.306;2023-08-06T09:14:39;3.47;;;1.50;;
41253;SDS011;26987;59.928;30.306;2023-08-06T09:17:09;2.72;;;1.58;;
41253;SDS011;26987;59.928;30.306;2023-08-06T09:19:37;4.03;;;1.80;;
41253;SDS011;26987;59.928;30.306;2023-08-06T09:22:11;5.32;;;1.98;;
41253;SDS011;26987;59.928;30.306;2023-08-06T09:24:39;2.60;;;1.35;;
41253;SDS011;26987;59.928;30.306;2023-08-06T09:27:10;2.78;;;1.50;;
41253;SDS011;26987;59.928;30.306;2023-08-06T09:29:40;2.47;;;1.58;;
41253;SDS011;26987;59.928;30.306;2023-08-06T09:32:10;3.85;;;1.80;;
41253;SDS011;26987;59.928;30.306;2023-08-06T09:34:39;5.72;;;1.90;;
41253;SDS011;26987;59.928;30.306;2023-08-06T09:37:08;6.18;;;2.13;;
41253;SDS011;26987;59.928;30.306;2023-08-06T09:39:38;3.55;;;1.70;;
41253;SDS011;26987;59.928;30.306;2023-08-06T09:42:07;5.80;;;1.60;;
41253;SDS011;26987;59.928;30.306;2023-08-06T09:44:35;7.10;;;1.60;;
41253;SDS011;26987;59.928;30.306;2023-08-06T09:47:04;2.63;;;1.40;;
41253;SDS011;26987;59.928;30.306;2023-08-06T09:49:43;5.15;;;1.73;;
41253;SDS011;26987;59.928;30.306;2023-08-06T09:52:12;2.47;;;1.80;;
41253;SDS011;26987;59.928;30.306;2023-08-06T09:54:42;5.15;;;1.60;;
41253;SDS011;26987;59.928;30.306;2023-08-06T09:57:11;3.45;;;1.65;;
41253;SDS011;26987;59.928;30.306;2023-08-06T09:59:39;4.97;;;2.00;;
41253;SDS011;26987;59.928;30.306;2023-08-06T10:02:11;2.88;;;1.65;;
41253;SDS011;26987;59.928;30.306;2023-08-06T10:04:43;6.38;;;1.98;;
41253;SDS011;26987;59.928;30.306;2023-08-06T10:07:13;4.22;;;1.77;;
41253;SDS011;26987;59.928;30.306;2023-08-06T10:09:42;3.75;;;1.98;;
41253;SDS011;26987;59.928;30.306;2023-08-06T10:12:10;3.92;;;1.60;;
41253;SDS011;26987;59.928;30.306;2023-08-06T10:14:38;6.45;;;2.10;;
41253;SDS011;26987;59.928;30.306;2023-08-06T10:17:07;2.40;;;1.70;;
41253;SDS011;26987;59.928;30.306;2023-08-06T10:19:36;3.58;;;2.00;;
41253;SDS011;26987;59.928;30.306;2023-08-06T10:22:09;3.97;;;1.88;;
41253;SDS011;26987;59.928;30.306;2023-08-06T10:24:51;5.40;;;1.90;;
41253;SDS011;26987;59.928;30.306;2023-08-06T10:27:20;4.82;;;1.60;;
41253;SDS011;26987;59.928;30.306;2023-08-06T10:29:49;3.22;;;1.90;;
41253;SDS011;26987;59.928;30.306;2023-08-06T10:32:17;2.70;;;1.45;;
41253;SDS011;26987;59.928;30.306;2023-08-06T10:34:55;3.20;;;1.75;;
41253;SDS011;26987;59.928;30.306;2023-08-06T10:37:36;4.85;;;1.73;;
41253;SDS011;26987;59.928;30.306;2023-08-06T10:40:06;4.65;;;2.10;;
41253;SDS011;26987;59.928;30.306;2023-08-06T10:42:34;4.22;;;1.63;;
41253;SDS011;26987;59.928;30.306;2023-08-06T10:45:10;2.95;;;1.63;;
41253;SDS011;26987;59.928;30.306;2023-08-06T10:47:39;7.13;;;1.70;;
41253;SDS011;26987;59.928;30.306;2023-08-06T10:50:10;3.08;;;1.50;;
41253;SDS011;26987;59.928;30.306;2023-08-06T10:52:40;4.75;;;1.60;;
41253;SDS011;26987;59.928;30.306;2023-08-06T10:55:08;3.53;;;1.95;;
41253;SDS011;26987;59.928;30.306;2023-08-06T10:57:36;2.83;;;1.65;;
41253;SDS011;26987;59.928;30.306;2023-08-06T11:00:04;3.00;;;1.65;;
41253;SDS011;26987;59.928;30.306;2023-08-06T11:02:34;4.10;;;2.42;;
41253;SDS011;26987;59.928;30.306;2023-08-06T11:05:06;5.10;;;1.98;;
41253;SDS011;26987;59.928;30.306;2023-08-06T11:07:34;4.40;;;1.95;;
41253;SDS011;26987;59.928;30.306;2023-08-06T11:10:04;2.85;;;1.50;;
41253;SDS011;26987;59.928;30.306;2023-08-06T11:12:34;3.55;;;1.58;;
41253;SDS011;26987;59.928;30.306;2023-08-06T11:15:02;4.70;;;1.70;;
41253;SDS011;26987;59.928;30.306;2023-08-06T11:17:32;3.28;;;1.80;;
41253;SDS011;26987;59.928;30.306;2023-08-06T11:20:01;3.40;;;1.85;;
41253;SDS011;26987;59.928;30.306;2023-08-06T11:22:32;4.95;;;2.00;;
41253;SDS011;26987;59.928;30.306;2023-08-06T11:25:00;4.50;;;1.85;;
41253;SDS011;26987;59.928;30.306;2023-08-06T11:27:29;3.50;;;1.80;;
41253;SDS011;26987;59.928;30.306;2023-08-06T11:29:57;3.97;;;1.75;;
41253;SDS011;26987;59.928;30.306;2023-08-06T11:32:25;3.65;;;1.83;;
41253;SDS011;26987;59.928;30.306;2023-08-06T11:34:54;2.72;;;1.88;;
41253;SDS011;26987;59.928;30.306;2023-08-06T11:37:22;2.92;;;1.80;;
41253;SDS011;26987;59.928;30.306;2023-08-06T11:39:53;7.50;;;2.00;;
41253;SDS011;26987;59.928;30.306;2023-08-06T11:42:22;5.57;;;2.15;;
41253;SDS011;26987;59.928;30.306;2023-08-06T11:44:52;4.10;;;1.90;;
41253;SDS011;26987;59.928;30.306;2023-08-06T11:47:24;3.15;;;1.98;;
41253;SDS011;26987;59.928;30.306;2023-08-06T11:49:52;3.42;;;1.75;;
41253;SDS011;26987;59.928;30.306;2023-08-06T11:52:20;3.40;;;1.70;;
41253;SDS011;26987;59.928;30.306;2023-08-06T11:54:59;5.32;;;1.92;;
41253;SDS011;26987;59.928;30.306;2023-08-06T11:57:29;3.20;;;2.03;;
41253;SDS011;26987;59.928;30.306;2023-08-06T12:00:02;3.13;;;1.67;;
41253;SDS011;26987;59.928;30.306;2023-08-06T12:02:38;2.10;;;1.90;;
41253;SDS011;26987;59.928;30.306;2023-08-06T12:05:10;2.25;;;1.85;;
41253;SDS011;26987;59.928;30.306;2023-08-06T12:07:39;7.50;;;2.13;;
41253;SDS011;26987;59.928;30.306;2023-08-06T12:10:08;2.65;;;1.83;;
41253;SDS011;26987;59.928;30.306;2023-08-06T12:12:37;2.63;;;1.90;;
41253;SDS011;26987;59.928;30.306;2023-08-06T12:15:07;2.17;;;1.70;;
41253;SDS011;26987;59.928;30.306;2023-08-06T12:17:36;4.03;;;1.98;;
41253;SDS011;26987;59.928;30.306;2023-08-06T12:20:05;4.50;;;2.28;;
41253;SDS011;26987;59.928;30.306;2023-08-06T12:22:34;7.97;;;2.20;;
41253;SDS011;26987;59.928;30.306;2023-08-06T12:25:05;4.03;;;2.22;;
41253;SDS011;26987;59.928;30.306;2023-08-06T12:27:34;5.25;;;2.05;;
41253;SDS011;26987;59.928;30.306;2023-08-06T12:30:03;5.03;;;2.70;;
41253;SDS011;26987;59.928;30.306;2023-08-06T12:32:33;4.85;;;2.40;;
41253;SDS011;26987;59.928;30.306;2023-08-06T12:35:02;5.13;;;1.90;;
41253;SDS011;26987;59.928;30.306;2023-08-06T12:37:32;4.63;;;2.67;;
41253;SDS011;26987;59.928;30.306;2023-08-06T12:40:00;3.65;;;2.00;;
41253;SDS011;26987;59.928;30.306;2023-08-06T12:42:28;4.13;;;2.72;;
41253;SDS011;26987;59.928;30.306;2023-08-06T12:44:55;5.78;;;2.30;;
41253;SDS011;26987;59.928;30.306;2023-08-06T12:47:23;3.90;;;2.13;;
41253;SDS011;26987;59.928;30.306;2023-08-06T12:49:52;6.22;;;2.58;;
41253;SDS011;26987;59.928;30.306;2023-08-06T12:52:20;5.35;;;2.17;;
41253;SDS011;26987;59.928;30.306;2023-08-06T12:54:48;4.72;;;2.10;;
41253;SDS011;26987;59.928;30.306;2023-08-06T12:57:16;10.00;;;2.47;;
41253;SDS011;26987;59.928;30.306;2023-08-06T12:59:43;6.95;;;2.38;;
41253;SDS011;26987;59.928;30.306;2023-08-06T13:02:11;2.92;;;2.00;;
41253;SDS011;26987;59.928;30.306;2023-08-06T13:04:39;6.45;;;2.60;;
41253;SDS011;26987;59.928;30.306;2023-08-06T13:07:08;5.43;;;2.53;;
41253;SDS011;26987;59.928;30.306;2023-08-06T13:09:36;6.50;;;2.33;;
41253;SDS011;26987;59.928;30.306;2023-08-06T13:12:04;5.03;;;2.10;;
41253;SDS011;26987;59.928;30.306;2023-08-06T13:14:32;6.45;;;2.00;;
41253;SDS011;26987;59.928;30.306;2023-08-06T13:17:00;3.22;;;2.20;;
41253;SDS011;26987;59.928;30.306;2023-08-06T13:19:28;3.15;;;2.20;;
41253;SDS011;26987;59.928;30.306;2023-08-06T13:22:02;2.55;;;2.08;;
41253;SDS011;26987;59.928;30.306;2023-08-06T13:24:34;8.00;;;2.92;;
41253;SDS011;26987;59.928;30.306;2023-08-06T13:27:02;3.58;;;1.92;;
41253;SDS011;26987;59.928;30.306;2023-08-06T13:29:30;4.47;;;2.47;;
41253;SDS011;26987;59.928;30.306;2023-08-06T13:31:58;3.40;;;2.63;;
41253;SDS011;26987;59.928;30.306;2023-08-06T13:34:25;3.30;;;2.17;;
41253;SDS011;26987;59.928;30.306;2023-08-06T13:36:53;4.50;;;2.45;;
41253;SDS011;26987;59.928;30.306;2023-08-06T13:39:21;4.28;;;2.00;;
41253;SDS011;26987;59.928;30.306;2023-08-06T13:41:50;2.53;;;2.28;;
41253;SDS011;26987;59.928;30.306;2023-08-06T13:44:18;4.07;;;2.25;;
41253;SDS011;26987;59.928;30.306;2023-08-06T13:46:46;3.92;;;2.30;;
41253;SDS011;26987;59.928;30.306;2023-08-06T13:49:14;3.75;;;2.42;;
41253;SDS011;26987;59.928;30.306;2023-08-06T13:51:41;4.82;;;2.80;;
41253;SDS011;26987;59.928;30.306;2023-08-06T13:54:09;8.93;;;2.55;;
41253;SDS011;26987;59.928;30.306;2023-08-06T13:56:37;7.47;;;2.97;;
41253;SDS011;26987;59.928;30.306;2023-08-06T13:59:06;4.88;;;2.50;;
41253;SDS011;26987;59.928;30.306;2023-08-06T14:01:34;3.40;;;2.55;;
41253;SDS011;26987;59.928;30.306;2023-08-06T14:04:02;6.35;;;2.53;;
41253;SDS011;26987;59.928;30.306;2023-08-06T14:06:30;4.18;;;2.40;;
41253;SDS011;26987;59.928;30.306;2023-08-06T14:08:58;5.25;;;2.28;;
41253;SDS011;26987;59.928;30.306;2023-08-06T14:11:25;6.28;;;3.05;;
41253;SDS011;26987;59.928;30.306;2023-08-06T14:13:53;7.68;;;2.95;;
41253;SDS011;26987;59.928;30.306;2023-08-06T14:16:23;4.90;;;2.60;;
41253;SDS011;26987;59.928;30.306;2023-08-06T14:18:50;6.97;;;3.28;;
41253;SDS011;26987;59.928;30.306;2023-08-06T14:21:18;5.63;;;2.60;;
41253;SDS011;26987;59.928;30.306;2023-08-06T14:23:46;13.60;;;2.97;;
41253;SDS011;26987;59.928;30.306;2023-08-06T14:26:14;6.50;;;2.80;;
41253;SDS011;26987;59.928;30.306;2023-08-06T14:28:43;8.18;;;2.58;;
41253;SDS011;26987;59.928;30.306;2023-08-06T14:31:11;6.78;;;2.90;;
41253;SDS011;26987;59.928;30.306;2023-08-06T14:33:40;7.45;;;2.78;;
41253;SDS011;26987;59.928;30.306;2023-08-06T14:36:08;8.27;;;3.30;;
41253;SDS011;26987;59.928;30.306;2023-08-06T14:38:35;5.90;;;2.65;;
41253;SDS011;26987;59.928;30.306;2023-08-06T14:41:04;3.20;;;2.58;;
41253;SDS011;26987;59.928;30.306;2023-08-06T14:43:32;4.28;;;3.03;;